Time;durP1;ratioP1;P1;durP2;ratioP2;P2;SDS_P1;SDS_P2;PMS_P1;PMS_P2;Temp;Humidity;BMP_temperature;BMP_pressure;BME280_temperature;BME280_humidity;BME280_pressure;Samples;Min_cycle;Max_cycle;Signal;HPM_P1;HPM_P2
2021/10/01 00:01:21;;;;;;;;;;;12.70;79.70;;;;;;6371498;22;19906;-85
2021/10/01 00:03:47;;;;;;;;;;;12.80;79.90;;;;;;6318338;22;19917;-84
2021/10/01 00:06:12;;;;;;;;;;;12.70;79.90;;;;;;6401823;22;19906;-85
2021/10/01 00:08:38;;;;;;;;;;;12.70;79.90;;;;;;6371818;22;20264;-84
2021/10/01 00:11:04;;;;;;;;;;;12.70;79.90;;;;;;6370698;22;19898;-84
2021/10/01 00:13:30;;;;;;;;;;;12.60;79.90;;;;;;6373373;22;19977;-85
2021/10/01 00:15:56;;;;;;;;;;;12.60;79.90;;;;;;6346999;22;20218;-83
2021/10/01 00:18:22;;;;;;;;;;;12.70;80.00;;;;;;6344881;22;19996;-85
2021/10/01 00:20:47;;;;;;;;;;;12.80;80.10;;;;;;6322623;22;19906;-84
2021/10/01 00:23:13;;;;;;;;;;;12.70;80.00;;;;;;6373988;22;19898;-83
2021/10/01 00:25:38;;;;;;;;;;;12.70;80.00;;;;;;6346991;22;20024;-85
2021/10/01 00:28:04;;;;;;;;;;;12.60;79.90;;;;;;6320151;22;20199;-84
2021/10/01 00:30:30;;;;;;;;;;;12.70;79.90;;;;;;6374164;22;19898;-85
2021/10/01 00:32:58;;;;;;;;;;;12.80;80.00;;;;;;6345299;22;20213;-84
2021/10/01 00:35:23;;;;;;;;;;;12.70;79.80;;;;;;6371207;22;19901;-83
2021/10/01 00:37:49;;;;;;;;;;;13.00;79.90;;;;;;6343689;22;19951;-83
2021/10/01 00:40:14;;;;;;;;;;;12.70;79.70;;;;;;6371907;22;19899;-82
2021/10/01 00:42:40;;;;;;;;;;;12.70;79.60;;;;;;6402469;22;19989;-83
2021/10/01 00:45:06;;;;;;;;;;;12.80;79.70;;;;;;6402437;22;19921;-84
2021/10/01 00:47:32;;;;;;;;;;;12.80;79.60;;;;;;6401289;22;19913;-83
2021/10/01 00:49:57;;;;;;;;;;;12.80;79.50;;;;;;6400933;22;19910;-84
2021/10/01 00:52:23;;;;;;;;;;;12.80;79.60;;;;;;6370257;22;20290;-84
2021/10/01 00:54:49;;;;;;;;;;;12.70;79.40;;;;;;6346546;22;19992;-83
2021/10/01 00:57:15;;;;;;;;;;;12.80;79.50;;;;;;6400486;22;19898;-83
2021/10/01 00:59:40;;;;;;;;;;;12.80;79.40;;;;;;6343922;22;19905;-84
2021/10/01 01:02:06;;;;;;;;;;;12.70;79.40;;;;;;6373496;22;19898;-84
2021/10/01 01:04:32;;;;;;;;;;;12.80;79.40;;;;;;6345184;22;20315;-84
2021/10/01 01:07:17;;;;;;;;;;;12.80;79.40;;;;;;6371886;22;19969;-84
2021/10/01 01:09:49;;;;;;;;;;;12.80;79.40;;;;;;6400954;22;19902;-83
2021/10/01 01:12:28;;;;;;;;;;;12.80;79.40;;;;;;6370881;22;19898;-86
2021/10/01 01:15:00;;;;;;;;;;;12.80;79.50;;;;;;6365839;22;19898;-85
2021/10/01 01:17:29;;;;;;;;;;;12.80;79.50;;;;;;6401107;22;19902;-85
2021/10/01 01:20:09;;;;;;;;;;;12.70;79.60;;;;;;6400844;22;19929;-85
2021/10/01 01:22:54;;;;;;;;;;;12.70;79.70;;;;;;6371590;22;19977;-85
2021/10/01 01:25:38;;;;;;;;;;;12.70;79.80;;;;;;6371758;22;19910;-84
2021/10/01 01:28:07;;;;;;;;;;;12.60;79.80;;;;;;6344684;22;20225;-85
2021/10/01 01:30:37;;;;;;;;;;;12.70;80.00;;;;;;6400699;22;19898;-85
2021/10/01 01:33:03;;;;;;;;;;;12.50;80.00;;;;;;6371300;22;19907;-84
2021/10/01 01:35:34;;;;;;;;;;;12.50;80.00;;;;;;6367605;22;19898;-83
2021/10/01 01:38:04;;;;;;;;;;;12.60;80.10;;;;;;6370294;22;20294;-85
2021/10/01 01:40:31;;;;;;;;;;;12.60;80.00;;;;;;6370687;22;19926;-83
2021/10/01 01:42:58;;;;;;;;;;;12.50;80.00;;;;;;6400970;22;19947;-84
2021/10/01 01:45:24;;;;;;;;;;;12.60;80.10;;;;;;6372273;22;19952;-85
2021/10/01 01:47:51;;;;;;;;;;;12.60;80.10;;;;;;6401051;22;19898;-84
2021/10/01 01:50:17;;;;;;;;;;;12.50;80.00;;;;;;6370751;22;19902;-83
2021/10/01 01:52:44;;;;;;;;;;;12.60;80.00;;;;;;6400721;22;19898;-83
2021/10/01 01:55:10;;;;;;;;;;;12.80;80.10;;;;;;6345419;22;19912;-83
2021/10/01 01:57:36;;;;;;;;;;;12.60;80.00;;;;;;6371520;22;20292;-85
2021/10/01 02:00:03;;;;;;;;;;;12.70;80.00;;;;;;6369996;22;19905;-83
2021/10/01 02:02:29;;;;;;;;;;;12.50;79.80;;;;;;6316891;22;19898;-84
2021/10/01 02:04:55;;;;;;;;;;;12.60;79.80;;;;;;6400762;22;20353;-85
2021/10/01 02:07:20;;;;;;;;;;;12.70;79.90;;;;;;6344001;22;19909;-84
2021/10/01 02:09:46;;;;;;;;;;;12.60;79.80;;;;;;6343010;22;19902;-82
2021/10/01 02:12:13;;;;;;;;;;;12.60;79.80;;;;;;6358742;22;19897;-82
2021/10/01 02:14:40;;;;;;;;;;;12.60;79.80;;;;;;6342524;22;19902;-83
2021/10/01 02:17:09;;;;;;;;;;;12.60;79.80;;;;;;6382767;22;19928;-85
2021/10/01 02:19:35;;;;;;;;;;;12.60;79.80;;;;;;6345822;22;19906;-84
2021/10/01 02:22:01;;;;;;;;;;;12.70;79.80;;;;;;6400070;22;19897;-85
2021/10/01 02:24:28;;;;;;;;;;;12.70;79.70;;;;;;6371581;22;19913;-84
2021/10/01 02:26:59;;;;;;;;;;;12.70;79.70;;;;;;6400898;22;19901;-85
2021/10/01 02:29:27;;;;;;;;;;;12.70;79.70;;;;;;6347112;22;19902;-83
2021/10/01 02:32:07;;;;;;;;;;;12.70;79.70;;;;;;6401138;22;20259;-84
2021/10/01 02:34:35;;;;;;;;;;;12.70;79.70;;;;;;6346503;22;19950;-82
2021/10/01 02:37:01;;;;;;;;;;;12.70;79.80;;;;;;6345661;22;19898;-84
2021/10/01 02:39:27;;;;;;;;;;;12.70;79.80;;;;;;6344653;22;20306;-84
2021/10/01 02:41:53;;;;;;;;;;;12.70;79.80;;;;;;6370612;22;19905;-85
2021/10/01 02:44:18;;;;;;;;;;;12.70;79.80;;;;;;6372189;22;20219;-83
2021/10/01 02:46:44;;;;;;;;;;;12.70;79.70;;;;;;6400085;22;20322;-82
2021/10/01 02:49:10;;;;;;;;;;;12.60;79.60;;;;;;6345568;22;20283;-85
2021/10/01 02:51:40;;;;;;;;;;;12.70;79.60;;;;;;6372647;22;20306;-84
2021/10/01 02:54:08;;;;;;;;;;;12.70;79.60;;;;;;6372291;22;20185;-83
2021/10/01 02:56:37;;;;;;;;;;;12.70;79.70;;;;;;6345977;22;20306;-83
2021/10/01 02:59:03;;;;;;;;;;;12.70;79.70;;;;;;6402301;22;19898;-83
2021/10/01 03:01:31;;;;;;;;;;;12.70;79.60;;;;;;6347138;22;19897;-83
2021/10/01 03:04:00;;;;;;;;;;;12.70;79.60;;;;;;6401073;22;19905;-82
2021/10/01 03:06:29;;;;;;;;;;;12.70;79.60;;;;;;6372246;22;19925;-83
2021/10/01 03:08:54;;;;;;;;;;;12.80;79.60;;;;;;6373058;22;19905;-85
2021/10/01 03:11:23;;;;;;;;;;;12.80;79.50;;;;;;6373190;22;19898;-85
2021/10/01 03:13:49;;;;;;;;;;;12.80;79.60;;;;;;6373093;22;19898;-82
2021/10/01 03:16:17;;;;;;;;;;;12.70;79.50;;;;;;6347300;22;19897;-83
2021/10/01 03:18:43;;;;;;;;;;;12.90;79.60;;;;;;6347060;22;19913;-83
2021/10/01 03:21:08;;;;;;;;;;;12.80;79.60;;;;;;6373101;22;19897;-82
2021/10/01 03:23:34;;;;;;;;;;;12.90;79.50;;;;;;6354218;22;19899;-84
2021/10/01 03:26:00;;;;;;;;;;;12.80;79.40;;;;;;6341744;22;19906;-83
2021/10/01 03:28:26;;;;;;;;;;;12.80;79.40;;;;;;6314403;22;19959;-84
2021/10/01 03:30:52;;;;;;;;;;;12.80;79.30;;;;;;6313942;22;19950;-84
2021/10/01 03:33:18;;;;;;;;;;;12.80;79.30;;;;;;6315315;22;19898;-84
2021/10/01 03:35:45;;;;;;;;;;;12.90;79.40;;;;;;6342467;22;19898;-83
2021/10/01 03:38:11;;;;;;;;;;;12.90;79.40;;;;;;6341448;22;19940;-82
2021/10/01 03:40:37;;;;;;;;;;;12.90;79.30;;;;;;6315637;22;20283;-85
2021/10/01 03:43:02;;;;;;;;;;;13.00;79.10;;;;;;6341734;22;19898;-85
2021/10/01 03:45:28;;;;;;;;;;;13.10;79.10;;;;;;6369930;22;19950;-85
2021/10/01 03:47:55;;;;;;;;;;;12.90;78.80;;;;;;6342360;22;19902;-82
2021/10/01 03:50:20;;;;;;;;;;;13.00;78.90;;;;;;6338880;22;19906;-83
2021/10/01 03:52:46;;;;;;;;;;;13.00;78.80;;;;;;6341172;22;20302;-83
2021/10/01 03:55:19;;;;;;;;;;;13.00;78.80;;;;;;6315880;22;19898;-84
2021/10/01 03:57:45;;;;;;;;;;;13.00;78.80;;;;;;6351027;22;19913;-84
2021/10/01 04:00:11;;;;;;;;;;;13.00;78.70;;;;;;6346778;22;19898;-84
2021/10/01 04:02:36;;;;;;;;;;;13.10;78.70;;;;;;6373555;22;20398;-84
2021/10/01 04:05:02;;;;;;;;;;;13.00;78.80;;;;;;6315952;22;20289;-83
2021/10/01 04:07:28;;;;;;;;;;;12.90;78.90;;;;;;6343798;22;20294;-83
2021/10/01 04:09:54;;;;;;;;;;;12.90;79.00;;;;;;6369110;22;19898;-85
2021/10/01 04:12:19;;;;;;;;;;;12.90;79.10;;;;;;6315428;22;20332;-84
2021/10/01 04:14:45;;;;;;;;;;;12.90;79.10;;;;;;6341546;22;19905;-86
2021/10/01 04:17:11;;;;;;;;;;;12.90;79.30;;;;;;6341673;22;19905;-85
2021/10/01 04:19:36;;;;;;;;;;;12.80;79.30;;;;;;6320974;22;19898;-83
2021/10/01 04:22:02;;;;;;;;;;;12.70;79.40;;;;;;6373034;22;19957;-85
2021/10/01 04:24:28;;;;;;;;;;;12.70;79.40;;;;;;6373690;22;19906;-84
2021/10/01 04:26:53;;;;;;;;;;;12.70;79.50;;;;;;6375687;22;19992;-83
2021/10/01 04:29:19;;;;;;;;;;;12.70;79.50;;;;;;6347372;22;19948;-83
2021/10/01 04:31:44;;;;;;;;;;;12.60;79.50;;;;;;6347573;22;19906;-86
2021/10/01 04:34:10;;;;;;;;;;;12.50;79.60;;;;;;6373503;22;19902;-83
2021/10/01 04:36:35;;;;;;;;;;;12.60;79.70;;;;;;6372841;22;19898;-84
2021/10/01 04:39:02;;;;;;;;;;;12.50;79.70;;;;;;6372684;22;19901;-85
2021/10/01 04:41:28;;;;;;;;;;;12.50;79.80;;;;;;6373258;22;19898;-84
2021/10/01 04:43:54;;;;;;;;;;;12.50;80.00;;;;;;6372949;22;19902;-85
2021/10/01 04:46:20;;;;;;;;;;;12.40;79.90;;;;;;6373137;22;19910;-82
2021/10/01 04:48:46;;;;;;;;;;;12.40;79.90;;;;;;6371000;22;19948;-85
2021/10/01 04:51:12;;;;;;;;;;;12.40;79.90;;;;;;6348427;22;19961;-83
2021/10/01 04:53:37;;;;;;;;;;;12.40;80.00;;;;;;6366718;22;19999;-86
2021/10/01 04:56:03;;;;;;;;;;;12.40;80.00;;;;;;6403079;22;20297;-83
2021/10/01 04:58:29;;;;;;;;;;;12.30;79.80;;;;;;6373091;22;19927;-82
2021/10/01 05:00:54;;;;;;;;;;;12.30;79.80;;;;;;6347677;22;19946;-85
2021/10/01 05:03:20;;;;;;;;;;;12.40;79.80;;;;;;6374918;22;19898;-84
2021/10/01 05:05:46;;;;;;;;;;;12.30;79.60;;;;;;6368415;22;20323;-82
2021/10/01 05:08:11;;;;;;;;;;;12.30;79.50;;;;;;6374132;22;19902;-82
2021/10/01 05:10:37;;;;;;;;;;;12.40;79.60;;;;;;6371100;22;19971;-83
2021/10/01 05:13:03;;;;;;;;;;;12.40;79.60;;;;;;6373546;22;19905;-84
2021/10/01 05:15:28;;;;;;;;;;;12.40;79.60;;;;;;6373405;22;19906;-84
2021/10/01 05:17:54;;;;;;;;;;;12.30;79.60;;;;;;6402408;22;19898;-85
2021/10/01 05:20:19;;;;;;;;;;;12.40;79.60;;;;;;6347130;22;19898;-83
2021/10/01 05:22:45;;;;;;;;;;;12.30;79.50;;;;;;6401943;22;19933;-82
2021/10/01 05:25:11;;;;;;;;;;;12.30;79.50;;;;;;6373095;22;19914;-82
2021/10/01 05:27:37;;;;;;;;;;;12.40;79.60;;;;;;6373722;22;19909;-83
2021/10/01 05:30:03;;;;;;;;;;;12.30;79.60;;;;;;6373731;22;20023;-85
2021/10/01 05:32:29;;;;;;;;;;;12.40;79.60;;;;;;6401751;22;19904;-85
2021/10/01 05:34:54;;;;;;;;;;;12.30;79.50;;;;;;6347490;22;19980;-82
2021/10/01 05:37:20;;;;;;;;;;;12.40;79.60;;;;;;6370667;22;20306;-84
2021/10/01 05:39:45;;;;;;;;;;;12.30;79.40;;;;;;6400950;22;19898;-83
2021/10/01 05:42:12;;;;;;;;;;;12.40;79.50;;;;;;6373159;22;20297;-85
2021/10/01 05:44:37;;;;;;;;;;;12.30;79.40;;;;;;6401227;22;19929;-83
2021/10/01 05:47:05;;;;;;;;;;;12.40;79.50;;;;;;6347089;22;19902;-85
2021/10/01 05:49:38;;;;;;;;;;;12.30;79.50;;;;;;6402741;22;19919;-84
2021/10/01 05:54:45;;;;;;;;;;;12.30;79.30;;;;;;6377624;22;19910;-84
2021/10/01 05:57:12;;;;;;;;;;;12.40;79.30;;;;;;6348502;22;19906;-84
2021/10/01 05:59:38;;;;;;;;;;;12.50;79.30;;;;;;6345506;22;19905;-85
2021/10/01 06:02:04;;;;;;;;;;;12.40;79.10;;;;;;6355639;22;19913;-85
2021/10/01 06:04:30;;;;;;;;;;;12.30;79.00;;;;;;6347354;22;20765;-85
2021/10/01 06:06:56;;;;;;;;;;;12.40;79.00;;;;;;6404635;22;19901;-86
2021/10/01 06:09:23;;;;;;;;;;;12.40;79.00;;;;;;6347777;22;20300;-83
2021/10/01 06:11:49;;;;;;;;;;;12.40;79.00;;;;;;6406294;22;20221;-83
2021/10/01 06:14:20;;;;;;;;;;;12.40;79.00;;;;;;6351564;22;19898;-86
2021/10/01 06:16:45;;;;;;;;;;;12.50;79.10;;;;;;6406452;22;19905;-86
2021/10/01 06:19:11;;;;;;;;;;;12.50;79.00;;;;;;6352475;22;19898;-84
2021/10/01 06:21:37;;;;;;;;;;;12.40;78.90;;;;;;6353257;22;19898;-83
2021/10/01 06:24:05;;;;;;;;;;;12.50;78.90;;;;;;6376883;22;20386;-86
2021/10/01 06:26:30;;;;;;;;;;;12.50;78.90;;;;;;6376806;22;20310;-86
2021/10/01 06:28:56;;;;;;;;;;;12.40;78.70;;;;;;6355689;22;19937;-85
2021/10/01 06:31:22;;;;;;;;;;;12.50;78.70;;;;;;6361061;22;19898;-83
2021/10/01 06:33:48;;;;;;;;;;;12.60;78.60;;;;;;6349779;22;20392;-83
2021/10/01 06:36:16;;;;;;;;;;;12.60;78.50;;;;;;6377957;22;19929;-82
2021/10/01 06:38:42;;;;;;;;;;;12.60;78.50;;;;;;6360089;22;19898;-85
2021/10/01 06:41:08;;;;;;;;;;;12.50;78.50;;;;;;6353416;22;19898;-85
2021/10/01 06:43:34;;;;;;;;;;;12.50;78.50;;;;;;6361972;22;20009;-82
2021/10/01 06:46:00;;;;;;;;;;;12.60;78.50;;;;;;6351232;22;19906;-82
2021/10/01 06:49:11;;;;;;;;;;;12.70;79.10;;;;;;6369096;22;19958;-83
2021/10/01 06:51:26;;;;;;;;;;;12.70;78.40;;;;;;6409318;22;20234;-83
2021/10/01 07:39:00;;;;;;;;;;;13.20;77.70;;;;;;6349583;22;19991;-82
2021/10/01 08:19:43;;;;;;;;;;;13.70;77.10;;;;;;6380962;22;19897;-82
2021/10/01 08:22:09;;;;;;;;;;;13.80;77.00;;;;;;6408030;22;19906;-82
2021/10/01 08:24:35;;;;;;;;;;;13.80;77.00;;;;;;6375389;22;19910;-80
2021/10/01 08:27:03;;;;;;;;;;;13.80;76.90;;;;;;6374798;22;19905;-81
2021/10/01 08:29:29;;;;;;;;;;;13.90;76.90;;;;;;6375536;22;19946;-82
2021/10/01 08:32:00;;;;;;;;;;;14.10;76.90;;;;;;6348736;22;19947;-82
2021/10/01 08:34:28;;;;;;;;;;;14.00;76.80;;;;;;6373278;22;19906;-82
2021/10/01 08:36:54;;;;;;;;;;;13.90;76.60;;;;;;6319959;22;19898;-81
2021/10/01 08:39:21;;;;;;;;;;;14.00;76.60;;;;;;6346542;22;19905;-82
2021/10/01 08:41:47;;;;;;;;;;;14.10;76.60;;;;;;6402012;22;20213;-81
2021/10/01 08:44:13;;;;;;;;;;;14.00;76.70;;;;;;6376017;22;19945;-81
2021/10/01 08:46:38;;;;;;;;;;;14.00;76.90;;;;;;6403547;22;19898;-83
2021/10/01 08:49:06;;;;;;;;;;;13.90;77.10;;;;;;6373584;22;19898;-82
2021/10/01 08:51:32;;;;;;;;;;;13.80;77.30;;;;;;6401616;22;19980;-82
2021/10/01 08:53:58;;;;;;;;;;;13.90;77.50;;;;;;6402256;22;20266;-82
2021/10/01 08:56:24;;;;;;;;;;;14.00;77.60;;;;;;6373186;22;19898;-82
2021/10/01 08:58:50;;;;;;;;;;;14.00;77.60;;;;;;6401943;22;20198;-79
2021/10/01 09:01:16;;;;;;;;;;;14.10;77.60;;;;;;6401224;22;19944;-80
2021/10/01 09:03:42;;;;;;;;;;;14.20;77.60;;;;;;6346078;22;19902;-80
2021/10/01 09:06:08;;;;;;;;;;;14.10;77.60;;;;;;6373119;22;19909;-81
2021/10/01 09:08:46;;;;;;;;;;;14.20;77.50;;;;;;6401607;22;19906;-81
2021/10/01 09:11:14;;;;;;;;;;;14.20;77.50;;;;;;6347041;22;19902;-81
2021/10/01 09:13:40;;;;;;;;;;;14.30;77.50;;;;;;6402282;22;19902;-81
2021/10/01 09:16:07;;;;;;;;;;;14.40;77.40;;;;;;6347264;22;20278;-81
2021/10/01 09:18:36;;;;;;;;;;;14.40;77.30;;;;;;6401304;22;19968;-81
2021/10/01 09:21:03;;;;;;;;;;;14.50;77.10;;;;;;6401974;22;19928;-81
2021/10/01 09:23:29;;;;;;;;;;;14.50;77.00;;;;;;6374231;22;19898;-81
2021/10/01 09:26:05;;;;;;;;;;;14.50;77.00;;;;;;6372082;22;19989;-81
2021/10/01 09:28:42;;;;;;;;;;;14.50;77.00;;;;;;6344568;22;20330;-82
2021/10/01 09:31:28;;;;;;;;;;;14.40;77.10;;;;;;6372687;22;19898;-82
2021/10/01 09:33:53;;;;;;;;;;;14.40;77.40;;;;;;6346524;22;19898;-81
2021/10/01 09:36:19;;;;;;;;;;;14.20;77.80;;;;;;6401040;22;19961;-81
2021/10/01 09:38:44;;;;;;;;;;;14.10;78.10;;;;;;6354962;22;19983;-81
2021/10/01 09:41:11;;;;;;;;;;;14.10;78.60;;;;;;6372887;22;20298;-81
2021/10/01 09:43:37;;;;;;;;;;;14.00;78.70;;;;;;6373296;22;19955;-82
2021/10/01 09:46:05;;;;;;;;;;;14.00;78.80;;;;;;6400860;22;19910;-81
2021/10/01 09:48:33;;;;;;;;;;;14.00;78.90;;;;;;6345699;22;19898;-80
2021/10/01 09:51:07;;;;;;;;;;;14.00;79.00;;;;;;6373948;22;19902;-82
2021/10/01 09:53:41;;;;;;;;;;;14.10;78.90;;;;;;6401208;22;19906;-83
2021/10/01 09:56:16;;;;;;;;;;;14.20;78.80;;;;;;6346760;22;19898;-81
2021/10/01 09:58:41;;;;;;;;;;;14.20;78.70;;;;;;6400614;22;19950;-82
2021/10/01 10:01:07;;;;;;;;;;;14.30;78.60;;;;;;6371564;22;20226;-83
2021/10/01 10:03:33;;;;;;;;;;;14.30;78.40;;;;;;6346094;22;19970;-81
2021/10/01 10:06:01;;;;;;;;;;;14.30;78.40;;;;;;6359495;22;19910;-81
2021/10/01 10:08:28;;;;;;;;;;;14.40;78.50;;;;;;6371996;22;19905;-81
2021/10/01 10:10:56;;;;;;;;;;;14.50;78.60;;;;;;6400444;22;19972;-82
2021/10/01 10:13:37;;;;;;;;;;;14.50;78.60;;;;;;6315270;22;19902;-81
2021/10/01 10:16:05;;;;;;;;;;;14.50;78.80;;;;;;6339653;22;19948;-82
2021/10/01 10:18:30;;;;;;;;;;;14.60;78.40;;;;;;6341037;22;20291;-80
2021/10/01 10:20:56;;;;;;;;;;;14.70;78.30;;;;;;6345762;22;19905;-82
2021/10/01 10:23:22;;;;;;;;;;;14.80;78.20;;;;;;6349565;22;19899;-81
2021/10/01 10:25:48;;;;;;;;;;;14.90;78.10;;;;;;6314631;22;19917;-81
2021/10/01 10:28:13;;;;;;;;;;;14.90;78.00;;;;;;6341070;22;19902;-81
2021/10/01 10:30:39;;;;;;;;;;;15.10;77.80;;;;;;6361060;22;19898;-81
2021/10/01 10:33:24;;;;;;;;;;;15.20;77.60;;;;;;6400818;22;19898;-81
2021/10/01 10:35:50;;;;;;;;;;;15.20;77.40;;;;;;6372199;22;20297;-81
2021/10/01 10:38:30;;;;;;;;;;;15.40;77.20;;;;;;6372752;22;19898;-83
2021/10/01 10:40:55;;;;;;;;;;;15.40;76.80;;;;;;6345871;22;19905;-82
2021/10/01 10:43:21;;;;;;;;;;;15.50;76.70;;;;;;6371390;22;19898;-82
2021/10/01 10:45:47;;;;;;;;;;;15.50;76.70;;;;;;6400648;22;20318;-82
2021/10/01 10:48:17;;;;;;;;;;;15.60;76.70;;;;;;6372733;22;19928;-81
2021/10/01 10:50:45;;;;;;;;;;;15.70;76.60;;;;;;6345894;22;19932;-83
2021/10/01 10:53:14;;;;;;;;;;;15.80;76.60;;;;;;6372575;22;19906;-83
2021/10/01 10:55:59;;;;;;;;;;;15.80;76.40;;;;;;6400685;22;19974;-85
2021/10/01 10:58:37;;;;;;;;;;;15.90;76.30;;;;;;6400037;22;19972;-83
2021/10/01 11:01:12;;;;;;;;;;;15.90;76.20;;;;;;6400661;22;20242;-83
2021/10/01 11:03:38;;;;;;;;;;;15.90;76.10;;;;;;6369811;22;19905;-82
2021/10/01 11:06:13;;;;;;;;;;;16.00;76.00;;;;;;6324551;22;19910;-81
2021/10/01 11:08:41;;;;;;;;;;;16.00;76.00;;;;;;6359872;22;19905;-82
2021/10/01 11:11:23;;;;;;;;;;;16.00;76.00;;;;;;6372661;22;19966;-83
2021/10/01 11:13:49;;;;;;;;;;;16.00;75.90;;;;;;6372338;22;20370;-82
2021/10/01 11:16:17;;;;;;;;;;;16.10;75.70;;;;;;6345816;22;19972;-83
2021/10/01 11:19:00;;;;;;;;;;;16.10;75.70;;;;;;6400346;22;19906;-83
2021/10/01 11:21:33;;;;;;;;;;;16.20;75.60;;;;;;6401796;22;19902;-83
2021/10/01 11:24:03;;;;;;;;;;;16.20;75.40;;;;;;6346819;22;19906;-82
2021/10/01 11:26:37;;;;;;;;;;;16.20;75.40;;;;;;6401434;22;19905;-82
2021/10/01 11:29:04;;;;;;;;;;;16.20;75.50;;;;;;6401830;22;19898;-82
2021/10/01 11:31:38;;;;;;;;;;;16.20;75.60;;;;;;6373546;22;19916;-83
2021/10/01 11:34:04;;;;;;;;;;;16.30;75.60;;;;;;6373598;22;19914;-83
2021/10/01 11:36:30;;;;;;;;;;;16.30;75.70;;;;;;6373326;22;20282;-82
2021/10/01 11:39:04;;;;;;;;;;;16.40;75.50;;;;;;6348922;22;19898;-77
2021/10/01 11:41:29;;;;;;;;;;;16.40;76.00;;;;;;6381931;22;19906;-81
2021/10/01 11:43:56;;;;;;;;;;;16.30;75.10;;;;;;6345838;22;19978;-81
2021/10/01 11:46:31;;;;;;;;;;;16.40;75.30;;;;;;6370844;22;19899;-80
2021/10/01 11:48:56;;;;;;;;;;;16.30;75.40;;;;;;6371741;22;19898;-81
2021/10/01 11:51:22;;;;;;;;;;;16.30;75.60;;;;;;6373340;22;19946;-81
2021/10/01 11:53:48;;;;;;;;;;;16.20;75.80;;;;;;6373258;22;19902;-81
2021/10/01 11:56:14;;;;;;;;;;;16.20;76.10;;;;;;6347167;22;19974;-81
2021/10/01 11:58:39;;;;;;;;;;;16.10;76.30;;;;;;6371309;22;19898;-81
2021/10/01 12:01:12;;;;;;;;;;;16.20;76.50;;;;;;6373194;22;19941;-81
2021/10/01 12:03:54;;;;;;;;;;;16.10;76.50;;;;;;6373285;22;19898;-82
2021/10/01 12:06:20;;;;;;;;;;;16.10;76.60;;;;;;6372875;22;20370;-82
2021/10/01 12:08:57;;;;;;;;;;;16.20;76.80;;;;;;6371652;22;19906;-82
2021/10/01 12:11:24;;;;;;;;;;;16.10;76.80;;;;;;6369712;22;20276;-82
2021/10/01 12:13:50;;;;;;;;;;;16.10;76.80;;;;;;6373230;22;19898;-81
2021/10/01 12:16:16;;;;;;;;;;;16.10;76.80;;;;;;6372225;22;19898;-82
2021/10/01 12:18:42;;;;;;;;;;;16.20;76.80;;;;;;6346891;22;19898;-81
2021/10/01 12:21:09;;;;;;;;;;;16.10;76.70;;;;;;6401295;22;20226;-83
2021/10/01 12:23:38;;;;;;;;;;;16.20;76.70;;;;;;6372753;22;19902;-83
2021/10/01 12:26:18;;;;;;;;;;;16.30;76.70;;;;;;6372907;22;20310;-82
2021/10/01 12:28:58;;;;;;;;;;;16.30;76.50;;;;;;6373051;22;19902;-82
2021/10/01 12:31:29;;;;;;;;;;;16.50;76.50;;;;;;6371838;22;20286;-82
2021/10/01 12:33:57;;;;;;;;;;;16.50;76.40;;;;;;6373287;22;19905;-82
2021/10/01 12:36:23;;;;;;;;;;;16.40;76.20;;;;;;6401375;22;20260;-82
2021/10/01 12:38:52;;;;;;;;;;;16.60;76.30;;;;;;6402142;22;20228;-82
2021/10/01 12:41:17;;;;;;;;;;;16.60;76.30;;;;;;6372124;22;19898;-82
2021/10/01 12:43:44;;;;;;;;;;;16.50;76.10;;;;;;6373638;22;19898;-84
2021/10/01 12:46:10;;;;;;;;;;;16.60;76.10;;;;;;6347963;22;20286;-84
2021/10/01 12:48:36;;;;;;;;;;;16.70;75.60;;;;;;6372975;22;19976;-83
2021/10/01 12:51:01;;;;;;;;;;;16.70;75.20;;;;;;6373616;22;19902;-83
2021/10/01 12:53:27;;;;;;;;;;;16.70;75.00;;;;;;6374501;22;20233;-82
2021/10/01 12:55:52;;;;;;;;;;;16.80;75.40;;;;;;6372887;22;19910;-80
2021/10/01 12:58:52;;;;;;;;;;;16.80;74.60;;;;;;6401526;22;19902;-87
2021/10/01 13:01:57;;;;;;;;;;;16.90;74.50;;;;;;6372801;22;19937;-85
2021/10/01 13:04:28;;;;;;;;;;;16.90;74.40;;;;;;6337421;22;19910;-82
2021/10/01 13:06:53;;;;;;;;;;;17.00;74.00;;;;;;6310234;22;19959;-83
2021/10/01 13:09:35;;;;;;;;;;;17.00;74.00;;;;;;6313030;22;19898;-84
2021/10/01 13:12:29;;;;;;;;;;;17.10;74.00;;;;;;6337990;22;20349;-87
2021/10/01 13:15:05;;;;;;;;;;;17.10;74.00;;;;;;6336562;22;19907;-80
2021/10/01 13:18:03;;;;;;;;;;;17.10;74.00;;;;;;6334837;22;19905;-88
2021/10/01 13:20:29;;;;;;;;;;;17.00;74.00;;;;;;6337933;22;19906;-81
2021/10/01 13:23:01;;;;;;;;;;;17.10;74.00;;;;;;6335559;22;19903;-84
2021/10/01 13:25:28;;;;;;;;;;;17.10;73.90;;;;;;6336441;22;19910;-84
2021/10/01 13:27:55;;;;;;;;;;;17.10;73.90;;;;;;6310971;22;19899;-85
2021/10/01 13:30:21;;;;;;;;;;;17.10;73.90;;;;;;6340481;22;19898;-79
2021/10/01 13:32:48;;;;;;;;;;;17.10;73.90;;;;;;6318771;22;19973;-82
2021/10/01 13:35:15;;;;;;;;;;;17.10;73.90;;;;;;6310601;22;19898;-82
2021/10/01 13:37:42;;;;;;;;;;;17.10;74.00;;;;;;6401076;22;19897;-83
2021/10/01 13:40:08;;;;;;;;;;;17.10;74.10;;;;;;6401867;22;19902;-84
2021/10/01 13:42:34;;;;;;;;;;;17.10;73.90;;;;;;6372154;22;19898;-88
2021/10/01 13:48:01;;;;;;;;;;;17.20;73.90;;;;;;6383842;22;19913;-84
2021/10/01 13:50:51;;;;;;;;;;;17.20;73.70;;;;;;6314208;22;20378;-82
2021/10/01 13:53:17;;;;;;;;;;;17.20;73.60;;;;;;6352288;22;19913;-82
2021/10/01 13:55:43;;;;;;;;;;;17.30;73.50;;;;;;6378400;22;19955;-84
2021/10/01 13:58:11;;;;;;;;;;;17.30;73.50;;;;;;6338731;22;19906;-83
2021/10/01 14:00:37;;;;;;;;;;;17.20;73.30;;;;;;6391125;22;19908;-84
2021/10/01 14:03:05;;;;;;;;;;;17.30;73.90;;;;;;6385265;22;19898;-83
2021/10/01 14:05:31;;;;;;;;;;;17.40;73.20;;;;;;6380729;22;20330;-81
2021/10/01 14:07:56;;;;;;;;;;;17.40;73.20;;;;;;6409327;22;19953;-80
2021/10/01 14:10:24;;;;;;;;;;;17.40;73.20;;;;;;6361169;22;19906;-80
2021/10/01 14:12:50;;;;;;;;;;;17.30;73.20;;;;;;6379090;22;19945;-80
2021/10/01 14:15:25;;;;;;;;;;;17.30;73.20;;;;;;6375738;22;19955;-85
2021/10/01 14:17:51;;;;;;;;;;;17.30;73.30;;;;;;6344814;22;19898;-86
2021/10/01 14:20:19;;;;;;;;;;;17.40;73.40;;;;;;6312896;22;19910;-86
2021/10/01 14:22:45;;;;;;;;;;;17.20;73.40;;;;;;6329847;22;19902;-80
2021/10/01 14:25:11;;;;;;;;;;;17.30;73.40;;;;;;6378897;22;19913;-80
2021/10/01 14:27:37;;;;;;;;;;;17.30;73.40;;;;;;6409232;22;19897;-79
2021/10/01 14:30:05;;;;;;;;;;;17.30;73.30;;;;;;6403179;22;19914;-83
2021/10/01 14:32:30;;;;;;;;;;;17.40;73.30;;;;;;6375106;22;19951;-84
2021/10/01 14:34:56;;;;;;;;;;;17.30;73.10;;;;;;6347118;22;20252;-85
2021/10/01 14:37:28;;;;;;;;;;;17.40;72.90;;;;;;6312011;22;19957;-85
2021/10/01 14:39:54;;;;;;;;;;;17.40;72.80;;;;;;6289027;22;19906;-83
2021/10/01 14:42:20;;;;;;;;;;;17.30;72.80;;;;;;6338153;22;19906;-83
2021/10/01 14:44:50;;;;;;;;;;;17.40;72.80;;;;;;6347965;22;19921;-85
2021/10/01 14:47:16;;;;;;;;;;;17.30;72.80;;;;;;6330557;22;19934;-83
2021/10/01 14:49:42;;;;;;;;;;;17.40;72.90;;;;;;6314008;22;20330;-86
2021/10/01 14:52:10;;;;;;;;;;;17.40;73.00;;;;;;6311464;22;19910;-83
2021/10/01 14:54:36;;;;;;;;;;;17.30;73.00;;;;;;6286370;22;20009;-85
2021/10/01 14:57:04;;;;;;;;;;;17.30;73.10;;;;;;6310979;22;20322;-85
2021/10/01 14:59:30;;;;;;;;;;;17.30;73.80;;;;;;6279542;22;19911;-81
2021/10/01 15:01:56;;;;;;;;;;;17.20;73.00;;;;;;6282080;22;19921;-81
2021/10/01 15:04:21;;;;;;;;;;;17.20;73.10;;;;;;6262753;22;19895;-82
2021/10/01 15:06:47;;;;;;;;;;;17.10;73.20;;;;;;6233802;23;19955;-81
2021/10/01 15:09:12;;;;;;;;;;;17.10;73.40;;;;;;6226190;23;19937;-79
2021/10/01 15:11:38;;;;;;;;;;;17.10;73.50;;;;;;6228181;23;20236;-80
2021/10/01 15:14:06;;;;;;;;;;;17.00;73.50;;;;;;6230087;23;19907;-80
2021/10/01 15:16:31;;;;;;;;;;;17.00;73.50;;;;;;6259186;22;20576;-81
2021/10/01 15:19:00;;;;;;;;;;;17.10;73.60;;;;;;6248256;22;19927;-80
2021/10/01 15:21:25;;;;;;;;;;;17.00;73.60;;;;;;6166267;23;19904;-80
2021/10/01 15:23:51;;;;;;;;;;;17.00;73.50;;;;;;6227602;23;19900;-79
2021/10/01 15:26:17;;;;;;;;;;;17.00;73.40;;;;;;6188976;23;19968;-82
2021/10/01 15:28:43;;;;;;;;;;;17.10;73.40;;;;;;6229940;23;19958;-78
2021/10/01 15:31:09;;;;;;;;;;;17.10;73.40;;;;;;6259525;23;19904;-80
2021/10/01 15:33:35;;;;;;;;;;;17.10;73.40;;;;;;6143779;23;19966;-80
2021/10/01 15:36:01;;;;;;;;;;;17.00;73.40;;;;;;6096327;23;19917;-79
2021/10/01 15:38:31;;;;;;;;;;;17.00;73.40;;;;;;6191450;23;20356;-80
2021/10/01 15:40:59;;;;;;;;;;;17.00;73.40;;;;;;6145744;23;19927;-78
2021/10/01 15:43:25;;;;;;;;;;;16.90;73.40;;;;;;6141941;23;19897;-80
2021/10/01 15:49:13;;;;;;;;;;;17.00;73.50;;;;;;6181503;23;19915;-84
2021/10/01 15:51:39;;;;;;;;;;;16.80;73.50;;;;;;6130107;23;19916;-81
2021/10/01 15:54:15;;;;;;;;;;;16.90;73.60;;;;;;6158920;23;20007;-85